createdAt,value
2018-09-04T00:00:21.688Z,7.77
2018-09-04T00:02:51.028Z,6.97
2018-09-04T00:05:20.553Z,7.43
2018-09-04T00:07:49.919Z,7.20
2018-09-04T00:10:19.271Z,7.47
2018-09-04T00:12:48.724Z,7.80
2018-09-04T00:15:18.090Z,7.00
2018-09-04T00:17:47.496Z,6.97
2018-09-04T00:20:16.851Z,6.47
2018-09-04T00:22:46.286Z,8.07
2018-09-04T00:25:15.603Z,7.30
2018-09-04T00:27:45.489Z,7.87
2018-09-04T00:30:14.866Z,7.17
2018-09-04T00:32:44.217Z,7.77
2018-09-04T00:35:13.608Z,8.00
2018-09-04T00:37:42.960Z,8.17
2018-09-04T00:40:12.280Z,8.10
2018-09-04T00:42:41.728Z,7.77
2018-09-04T00:45:11.054Z,8.03
2018-09-04T00:47:40.336Z,8.40
2018-09-04T00:50:09.689Z,7.60
2018-09-04T00:52:38.987Z,7.80
2018-09-04T00:55:08.306Z,6.87
2018-09-04T00:57:38.257Z,8.20
2018-09-04T01:00:07.689Z,7.60
2018-09-04T01:02:36.989Z,8.20
2018-09-04T01:05:06.465Z,7.97
2018-09-04T01:07:35.716Z,8.87
2018-09-04T01:10:05.047Z,8.80
2018-09-04T01:12:34.440Z,8.23
2018-09-04T01:15:03.726Z,8.87
2018-09-04T01:17:33.044Z,8.70
2018-09-04T01:20:02.362Z,8.70
2018-09-04T01:22:31.618Z,10.40
2018-09-04T01:25:01.002Z,8.87
2018-09-04T01:27:30.347Z,9.17
2018-09-04T01:29:59.609Z,8.30
2018-09-04T01:32:29.031Z,9.37
2018-09-04T01:34:58.787Z,9.90
2018-09-04T01:37:28.171Z,8.97
2018-09-04T01:39:57.485Z,9.20
2018-09-04T01:42:27.002Z,10.10
2018-09-04T01:44:56.597Z,9.73
2018-09-04T01:47:25.999Z,10.63
2018-09-04T01:49:55.402Z,10.57
2018-09-04T01:52:24.853Z,10.53
2018-09-04T01:54:54.308Z,10.57
2018-09-04T01:57:23.730Z,11.33
2018-09-04T01:59:54.126Z,9.80
2018-09-04T02:02:23.519Z,10.17
2018-09-04T02:04:52.892Z,10.23
2018-09-04T02:07:22.488Z,11.30
2018-09-04T02:09:51.855Z,10.40
2018-09-04T02:12:21.269Z,10.60
2018-09-04T02:14:50.547Z,10.33
2018-09-04T02:17:19.850Z,10.60
2018-09-04T02:19:49.260Z,10.53
2018-09-04T02:22:18.605Z,11.67
2018-09-04T02:24:47.992Z,11.17
2018-09-04T02:27:17.427Z,10.80
2018-09-04T02:29:46.776Z,10.57
2018-09-04T02:32:16.051Z,10.30
2018-09-04T02:34:45.399Z,11.73
2018-09-04T02:37:14.872Z,11.43
2018-09-04T02:39:44.310Z,11.90
2018-09-04T02:42:14.019Z,11.47
2018-09-04T02:44:43.411Z,10.37
2018-09-04T02:47:12.739Z,11.40
2018-09-04T02:49:42.148Z,12.10
2018-09-04T02:52:11.477Z,12.63
2018-09-04T02:54:40.844Z,12.03
2018-09-04T02:57:10.283Z,13.17
2018-09-04T02:59:39.683Z,12.33
2018-09-04T03:02:09.207Z,12.43
2018-09-04T03:04:38.993Z,12.10
2018-09-04T03:07:08.411Z,11.70
2018-09-04T03:09:37.788Z,12.23
2018-09-04T03:12:07.315Z,13.07
2018-09-04T03:14:36.867Z,12.63
2018-09-04T03:17:07.557Z,13.60
2018-09-04T03:19:37.110Z,12.73
2018-09-04T03:22:06.588Z,13.23
2018-09-04T03:24:36.087Z,13.57
2018-09-04T03:27:05.768Z,14.33
2018-09-04T03:29:35.095Z,15.07
2018-09-04T03:32:04.495Z,15.17
2018-09-04T03:34:33.995Z,14.67
2018-09-04T03:37:03.517Z,14.53
2018-09-04T03:39:32.943Z,15.60
2018-09-04T03:42:02.635Z,14.37
2018-09-04T03:44:32.160Z,14.63
2018-09-04T03:47:01.495Z,16.50
2018-09-04T03:49:30.953Z,18.53
2018-09-04T03:52:00.336Z,14.50
2018-09-04T03:54:29.940Z,16.87
2018-09-04T03:56:59.397Z,15.73
2018-09-04T03:59:28.859Z,15.47
2018-09-04T04:01:58.379Z,16.57
2018-09-04T04:04:27.953Z,16.30
2018-09-04T04:06:57.301Z,15.87
2018-09-04T04:09:26.634Z,18.53
2018-09-04T04:11:56.502Z,16.93
2018-09-04T04:14:25.894Z,16.40
2018-09-04T04:16:55.388Z,16.83
2018-09-04T04:19:24.929Z,19.03
2018-09-04T04:21:54.335Z,18.10
2018-09-04T04:24:23.775Z,19.70
2018-09-04T04:26:53.190Z,20.13
2018-09-04T04:29:22.518Z,19.20
2018-09-04T04:31:51.917Z,20.47
2018-09-04T04:34:21.518Z,20.30
2018-09-04T04:36:50.913Z,21.50
2018-09-04T04:39:20.280Z,20.17
2018-09-04T04:41:49.616Z,20.93
2018-09-04T04:44:19.331Z,22.00
2018-09-04T04:46:48.743Z,22.90
2018-09-04T04:49:18.359Z,22.73
2018-09-04T04:51:47.740Z,23.10
2018-09-04T04:54:17.398Z,21.73
2018-09-04T04:56:47.015Z,21.13
2018-09-04T04:59:16.510Z,23.33
2018-09-04T05:01:45.884Z,23.43
2018-09-04T05:04:15.355Z,25.70
2018-09-04T05:06:44.682Z,23.97
2018-09-04T05:09:14.101Z,23.43
2018-09-04T05:11:43.547Z,23.00
2018-09-04T05:14:12.951Z,25.30
2018-09-04T05:16:42.299Z,26.20
2018-09-04T05:19:12.428Z,26.07
2018-09-04T05:21:41.830Z,27.40
2018-09-04T05:24:11.220Z,26.67
2018-09-04T05:26:40.713Z,27.30
2018-09-04T05:29:10.227Z,27.47
2018-09-04T05:31:44.702Z,29.63
2018-09-04T05:34:14.092Z,28.43
2018-09-04T05:36:43.660Z,29.20
2018-09-04T05:39:13.677Z,28.10
2018-09-04T05:41:43.091Z,27.53
2018-09-04T05:44:12.613Z,27.00
2018-09-04T05:46:47.889Z,28.20
2018-09-04T05:49:19.484Z,27.70
2018-09-04T05:51:48.842Z,27.87
2018-09-04T05:54:18.213Z,28.90
2018-09-04T05:56:47.587Z,33.63
2018-09-04T05:59:17.305Z,30.30
2018-09-04T06:01:46.676Z,30.00
2018-09-04T06:04:16.049Z,29.07
2018-09-04T06:06:45.500Z,31.53
2018-09-04T06:09:14.895Z,31.60
2018-09-04T06:11:44.418Z,29.80
2018-09-04T06:14:14.218Z,32.43
2018-09-04T06:16:44.608Z,29.70
2018-09-04T06:19:14.967Z,28.13
2018-09-04T06:21:45.188Z,31.50
2018-09-04T06:24:14.656Z,33.23
2018-09-04T06:26:44.076Z,31.13
2018-09-04T06:29:13.551Z,33.20
2018-09-04T06:31:42.987Z,32.20
2018-09-04T06:34:12.528Z,33.00
2018-09-04T06:36:41.950Z,33.47
2018-09-04T06:39:11.858Z,33.43
2018-09-04T06:41:41.507Z,32.23
2018-09-04T06:44:10.913Z,33.67
2018-09-04T06:46:40.343Z,70.87
2018-09-04T06:49:09.774Z,33.40
2018-09-04T06:51:39.080Z,35.13
2018-09-04T06:54:08.393Z,34.57
2018-09-04T06:56:37.790Z,31.33
2018-09-04T06:59:07.148Z,31.90
2018-09-04T07:01:36.558Z,34.50
2018-09-04T07:04:06.474Z,32.63
2018-09-04T07:06:35.888Z,32.40
2018-09-04T07:09:07.882Z,32.80
2018-09-04T07:11:37.240Z,32.40
2018-09-04T07:14:06.870Z,32.47
2018-09-04T07:16:36.542Z,30.23
2018-09-04T07:19:06.597Z,29.03
2018-09-04T07:21:36.146Z,29.30
2018-09-04T07:24:05.948Z,32.83
2018-09-04T07:26:35.383Z,30.20
2018-09-04T07:29:04.852Z,31.07
2018-09-04T07:31:34.198Z,27.23
2018-09-04T07:34:03.653Z,29.80
2018-09-04T07:36:33.065Z,26.90
2018-09-04T07:39:02.356Z,27.97
2018-09-04T07:41:31.674Z,25.00
2018-09-04T07:44:01.381Z,28.10
2018-09-04T07:46:31.167Z,28.90
2018-09-04T07:49:00.510Z,29.70
2018-09-04T07:51:29.923Z,29.07
2018-09-04T07:53:59.397Z,28.37
2018-09-04T07:56:28.867Z,27.67
2018-09-04T07:58:58.367Z,29.40
2018-09-04T08:01:27.739Z,28.70
2018-09-04T08:03:57.176Z,28.90
2018-09-04T08:06:26.653Z,27.20
2018-09-04T08:08:56.509Z,30.43
2018-09-04T08:11:26.039Z,27.77
2018-09-04T08:13:55.483Z,26.60
2018-09-04T08:16:24.963Z,28.30
2018-09-04T08:18:54.351Z,28.40
2018-09-04T08:21:23.783Z,27.43
2018-09-04T08:23:53.328Z,27.93
2018-09-04T08:26:23.408Z,28.10
2018-09-04T08:28:52.787Z,27.50
2018-09-04T08:31:22.864Z,25.37
2018-09-04T08:33:52.286Z,26.87
2018-09-04T08:36:21.926Z,25.17
2018-09-04T08:38:52.096Z,26.20
2018-09-04T08:41:21.601Z,25.67
2018-09-04T08:43:51.051Z,25.67
2018-09-04T08:46:20.688Z,25.63
2018-09-04T08:48:50.268Z,25.40
2018-09-04T08:51:19.883Z,24.87
2018-09-04T08:53:49.643Z,26.03
2018-09-04T08:56:19.072Z,24.13
2018-09-04T08:58:48.734Z,23.33
2018-09-04T09:01:18.250Z,24.97
2018-09-04T09:03:47.707Z,22.60
2018-09-04T09:06:16.998Z,23.10
2018-09-04T09:08:46.520Z,21.90
2018-09-04T09:11:15.876Z,21.93
2018-09-04T09:13:45.289Z,20.73
2018-09-04T09:16:14.860Z,21.40
2018-09-04T09:18:44.251Z,20.80
2018-09-04T09:21:13.728Z,20.17
2018-09-04T09:23:43.227Z,20.70
2018-09-04T09:26:12.679Z,20.20
2018-09-04T09:28:42.172Z,19.37
2018-09-04T09:31:11.632Z,20.10
2018-09-04T09:33:40.964Z,20.40
2018-09-04T09:36:10.493Z,19.60
2018-09-04T09:38:40.135Z,18.17
2018-09-04T09:41:09.524Z,19.00
2018-09-04T09:43:38.960Z,20.40
2018-09-04T09:46:08.367Z,20.43
2018-09-04T09:48:40.690Z,17.40
2018-09-04T09:51:11.531Z,19.63
2018-09-04T09:53:41.640Z,18.10
2018-09-04T09:56:11.829Z,17.73
2018-09-04T09:58:41.937Z,19.10
2018-09-04T10:01:16.459Z,18.40
2018-09-04T10:03:51.174Z,18.20
2018-09-04T10:06:21.592Z,19.37
2018-09-04T10:08:51.099Z,18.27
2018-09-04T10:11:20.520Z,19.57
2018-09-04T10:13:50.215Z,18.40
2018-09-04T10:16:20.183Z,18.40
2018-09-04T10:18:49.942Z,17.40
2018-09-04T10:21:19.300Z,18.30
2018-09-04T10:23:48.676Z,17.00
2018-09-04T10:26:18.190Z,17.30
2018-09-04T10:28:47.617Z,17.87
2018-09-04T10:31:16.958Z,17.80
2018-09-04T10:33:46.461Z,16.13
2018-09-04T10:36:15.886Z,15.87
2018-09-04T10:38:45.325Z,14.23
2018-09-04T10:41:15.591Z,14.70
2018-09-04T10:43:45.005Z,14.23
2018-09-04T10:46:15.655Z,14.57
2018-09-04T10:48:45.036Z,14.80
2018-09-04T10:51:14.507Z,15.50
2018-09-04T10:53:43.873Z,14.20
2018-09-04T10:56:13.816Z,14.40
2018-09-04T10:58:43.425Z,14.63
2018-09-04T11:01:12.852Z,14.07
2018-09-04T11:03:42.462Z,12.97
2018-09-04T11:06:11.867Z,12.60
2018-09-04T11:08:41.254Z,14.33
2018-09-04T11:11:10.655Z,12.40
2018-09-04T11:13:40.051Z,12.33
2018-09-04T11:16:09.426Z,13.00
2018-09-04T11:18:38.800Z,13.07
2018-09-04T11:21:08.169Z,12.73
2018-09-04T11:23:37.571Z,11.03
2018-09-04T11:26:07.477Z,12.40
2018-09-04T11:28:41.885Z,12.87
2018-09-04T11:31:11.327Z,11.70
2018-09-04T11:33:40.750Z,13.03
2018-09-04T11:36:10.146Z,11.33
2018-09-04T11:38:39.539Z,12.27
2018-09-04T11:41:08.943Z,11.47
2018-09-04T11:43:38.297Z,11.90
2018-09-04T11:46:08.701Z,10.83
2018-09-04T11:48:39.977Z,10.37
2018-09-04T11:51:11.223Z,10.63
2018-09-04T11:53:40.561Z,10.53
2018-09-04T11:56:09.896Z,9.80
2018-09-04T11:58:39.763Z,10.23
2018-09-04T12:01:10.817Z,9.30
2018-09-04T12:03:40.146Z,9.50
2018-09-04T12:06:09.890Z,8.87
2018-09-04T12:08:39.287Z,8.83
2018-09-04T12:11:08.661Z,9.30
2018-09-04T12:13:38.086Z,9.37
2018-09-04T12:16:07.481Z,8.33
2018-09-04T12:18:36.897Z,9.70
2018-09-04T12:21:07.841Z,9.13
2018-09-04T12:23:37.425Z,8.30
2018-09-04T12:26:08.668Z,8.57
2018-09-04T12:28:38.167Z,8.37
2018-09-04T12:31:08.242Z,8.23
2018-09-04T12:33:37.606Z,7.97
2018-09-04T12:36:07.547Z,7.37
2018-09-04T12:38:39.520Z,7.50
2018-09-04T12:41:15.884Z,7.20
2018-09-04T12:43:45.780Z,6.47
2018-09-04T12:46:15.384Z,6.43
2018-09-04T12:48:48.857Z,5.40
2018-09-04T12:51:18.415Z,5.70
2018-09-04T12:53:47.991Z,5.97
2018-09-04T12:56:17.426Z,5.20
2018-09-04T12:58:47.536Z,5.93
2018-09-04T13:01:17.072Z,5.60
2018-09-04T13:03:46.920Z,5.27
2018-09-04T13:06:16.395Z,5.33
2018-09-04T13:08:45.996Z,5.60
2018-09-04T13:11:15.722Z,5.23
2018-09-04T13:13:45.175Z,5.67
2018-09-04T13:16:14.671Z,4.67
2018-09-04T13:18:44.108Z,5.03
2018-09-04T13:21:13.511Z,5.07
2018-09-04T13:23:42.915Z,5.23
2018-09-04T13:26:12.751Z,5.07
2018-09-04T13:28:42.128Z,5.10
2018-09-04T13:31:11.509Z,4.53
2018-09-04T13:33:40.864Z,4.90
2018-09-04T13:36:10.324Z,5.47
2018-09-04T13:38:39.766Z,4.50
2018-09-04T13:41:10.067Z,4.60
2018-09-04T13:43:40.316Z,4.60
2018-09-04T13:46:09.695Z,4.40
2018-09-04T13:48:39.503Z,4.13
2018-09-04T13:51:08.990Z,4.50
2018-09-04T13:53:38.790Z,4.67
2018-09-04T13:56:08.176Z,4.50
2018-09-04T13:58:37.516Z,4.53
2018-09-04T14:01:07.361Z,4.03
2018-09-04T14:03:36.756Z,4.37
2018-09-04T14:06:06.303Z,3.73
2018-09-04T14:08:35.703Z,3.90
2018-09-04T14:11:05.483Z,4.50
2018-09-04T14:13:34.819Z,4.10
2018-09-04T14:16:07.605Z,4.07
2018-09-04T14:18:37.048Z,3.73
2018-09-04T14:21:06.608Z,3.47
2018-09-04T14:23:36.052Z,3.30
2018-09-04T14:26:05.603Z,3.67
2018-09-04T14:28:42.102Z,3.80
2018-09-04T14:31:05.648Z,3.47
2018-09-04T14:33:35.261Z,3.50
2018-09-04T14:36:04.657Z,3.40
2018-09-04T14:38:34.210Z,3.40
2018-09-04T14:41:03.861Z,3.40
2018-09-04T14:43:33.361Z,3.97
2018-09-04T14:46:03.012Z,3.60
2018-09-04T14:48:32.497Z,4.40
2018-09-04T14:51:01.911Z,3.43
2018-09-04T14:53:31.630Z,4.00
2018-09-04T14:56:01.133Z,3.70
2018-09-04T14:58:30.489Z,3.60
2018-09-04T15:00:59.977Z,4.20
2018-09-04T15:03:29.327Z,3.87
2018-09-04T15:05:58.712Z,3.80
2018-09-04T15:08:28.519Z,3.70
2018-09-04T15:10:57.967Z,3.37
2018-09-04T15:13:27.542Z,4.00
2018-09-04T15:15:57.821Z,3.73
2018-09-04T15:18:27.118Z,4.13
2018-09-04T15:20:56.513Z,4.30
2018-09-04T15:23:25.945Z,4.10
2018-09-04T15:25:55.507Z,4.40
2018-09-04T15:28:24.871Z,3.77
2018-09-04T15:30:54.536Z,4.70
2018-09-04T15:33:24.057Z,4.80
2018-09-04T15:35:53.565Z,4.00
2018-09-04T15:38:23.170Z,4.37
2018-09-04T15:40:52.620Z,4.20
2018-09-04T15:43:22.028Z,3.90
2018-09-04T15:45:51.744Z,3.93
2018-09-04T15:48:21.108Z,4.03
2018-09-04T15:50:50.558Z,3.70
2018-09-04T15:53:20.071Z,3.80
2018-09-04T15:55:49.539Z,4.83
2018-09-04T15:58:19.191Z,4.27
2018-09-04T16:00:48.787Z,4.43
2018-09-04T16:03:18.221Z,3.77
2018-09-04T16:06:23.539Z,4.10
2018-09-04T16:08:52.859Z,3.80
2018-09-04T16:11:22.376Z,4.50
2018-09-04T16:13:51.864Z,4.40
2018-09-04T16:16:21.313Z,4.27
2018-09-04T16:18:51.030Z,4.63
2018-09-04T16:21:20.917Z,4.90
2018-09-04T16:23:50.573Z,4.77
2018-09-04T16:26:20.112Z,5.97
2018-09-04T16:28:50.847Z,5.53
2018-09-04T16:31:20.435Z,5.07
2018-09-04T16:33:49.966Z,5.10
2018-09-04T16:36:19.712Z,5.80
2018-09-04T16:38:49.219Z,6.57
2018-09-04T16:41:18.665Z,5.87
2018-09-04T16:43:48.327Z,5.90
2018-09-04T16:46:17.806Z,5.90
2018-09-04T16:48:47.409Z,5.63
2018-09-04T16:51:16.816Z,5.70
2018-09-04T16:53:46.375Z,5.40
2018-09-04T16:56:15.810Z,6.20
2018-09-04T16:58:45.279Z,6.00
2018-09-04T17:01:14.758Z,6.10
2018-09-04T17:03:44.140Z,6.00
2018-09-04T17:06:13.725Z,6.80
2018-09-04T17:08:43.293Z,5.50
2018-09-04T17:11:12.937Z,6.53
2018-09-04T17:13:42.558Z,5.70
2018-09-04T17:16:11.964Z,5.80
2018-09-04T17:18:41.318Z,6.60
2018-09-04T17:21:10.812Z,6.07
2018-09-04T17:23:40.275Z,5.60
2018-09-04T17:26:09.706Z,6.40
2018-09-04T17:28:39.428Z,5.90
2018-09-04T17:31:08.944Z,6.23
2018-09-04T17:33:38.700Z,5.83
2018-09-04T17:36:08.206Z,5.93
2018-09-04T17:38:37.575Z,6.10
2018-09-04T17:41:07.245Z,5.80
2018-09-04T17:43:36.774Z,6.30
2018-09-04T17:46:06.962Z,5.87
2018-09-04T17:48:36.717Z,6.10
2018-09-04T17:51:06.887Z,7.13
2018-09-04T17:53:36.398Z,6.50
2018-09-04T17:56:05.865Z,6.27
2018-09-04T17:58:35.360Z,6.23
2018-09-04T18:01:04.981Z,7.13
2018-09-04T18:03:34.774Z,7.23
2018-09-04T18:06:04.326Z,5.93
2018-09-04T18:08:33.769Z,6.43
2018-09-04T18:11:03.276Z,6.17
2018-09-04T18:13:33.222Z,6.00
2018-09-04T18:16:02.562Z,6.73
2018-09-04T18:18:32.056Z,6.60
2018-09-04T18:21:01.712Z,5.80
2018-09-04T18:23:31.244Z,5.67
2018-09-04T18:26:00.807Z,7.00
2018-09-04T18:28:33.017Z,5.97
2018-09-04T18:31:02.495Z,7.20
2018-09-04T18:33:31.861Z,7.00
2018-09-04T18:36:01.417Z,7.10
2018-09-04T18:38:31.176Z,6.60
2018-09-04T18:41:00.772Z,6.67
2018-09-04T18:43:30.732Z,6.10
2018-09-04T18:46:00.378Z,6.90
2018-09-04T18:48:29.934Z,6.77
2018-09-04T18:50:59.514Z,5.90
2018-09-04T18:53:28.956Z,6.30
2018-09-04T18:55:58.319Z,5.90
2018-09-04T18:58:27.825Z,5.67
2018-09-04T19:00:57.153Z,6.50
2018-09-04T19:03:26.510Z,6.57
2018-09-04T19:05:56.037Z,6.27
2018-09-04T19:08:25.361Z,6.87
2018-09-04T19:10:54.753Z,6.30
2018-09-04T19:13:24.572Z,6.40
2018-09-04T19:15:54.030Z,6.40
2018-09-04T19:18:24.003Z,7.63
2018-09-04T19:20:53.851Z,6.70
2018-09-04T19:23:23.319Z,7.30
2018-09-04T19:25:52.993Z,6.97
2018-09-04T19:28:23.371Z,7.40
2018-09-04T19:30:52.718Z,7.17
2018-09-04T19:33:22.332Z,7.00
2018-09-04T19:35:52.027Z,6.93
2018-09-04T19:38:21.526Z,6.33
2018-09-04T19:40:51.049Z,6.70
2018-09-04T19:43:22.187Z,7.07
2018-09-04T19:45:51.569Z,6.83
2018-09-04T19:48:21.004Z,7.80
2018-09-04T19:50:50.447Z,7.93
2018-09-04T19:53:19.834Z,6.50
2018-09-04T19:55:49.346Z,8.03
2018-09-04T19:58:18.849Z,6.80
2018-09-04T20:00:48.704Z,6.10
2018-09-04T20:03:18.572Z,6.80
2018-09-04T20:05:48.397Z,7.13
2018-09-04T20:08:17.936Z,7.17
2018-09-04T20:10:47.444Z,6.63
2018-09-04T20:13:18.310Z,6.93
2018-09-04T20:15:47.903Z,7.50
2018-09-04T20:18:17.397Z,7.47
2018-09-04T20:20:47.031Z,6.60
2018-09-04T20:23:16.755Z,7.07
2018-09-04T20:25:46.385Z,6.63
2018-09-04T20:28:16.197Z,7.67
2018-09-04T20:30:45.963Z,7.50
2018-09-04T20:33:15.397Z,8.47
2018-09-04T20:35:45.132Z,8.30
2018-09-04T20:38:14.550Z,8.00
2018-09-04T20:40:43.951Z,7.30
2018-09-04T20:43:14.384Z,7.97
2018-09-04T20:45:44.648Z,7.80
2018-09-04T20:48:14.320Z,8.30
2018-09-04T20:50:44.875Z,7.73
2018-09-04T20:53:14.532Z,7.80
2018-09-04T20:55:43.917Z,7.53
2018-09-04T20:58:30.383Z,7.57
2018-09-04T21:01:16.801Z,7.13
2018-09-04T21:04:04.217Z,7.57
2018-09-04T21:06:45.821Z,8.10
2018-09-04T21:09:26.808Z,7.43
2018-09-04T21:11:57.380Z,7.50
2018-09-04T21:14:26.722Z,8.20
2018-09-04T21:16:56.167Z,7.83
2018-09-04T21:19:25.969Z,7.60
2018-09-04T21:21:55.718Z,8.60
2018-09-04T21:24:25.174Z,7.37
2018-09-04T21:26:56.194Z,8.07
2018-09-04T21:29:25.797Z,8.83
2018-09-04T21:31:55.358Z,9.93
2018-09-04T21:34:24.722Z,9.30
2018-09-04T21:36:55.353Z,9.07
2018-09-04T21:39:25.043Z,7.90
2018-09-04T21:41:54.493Z,8.13
2018-09-04T21:44:25.250Z,8.53
2018-09-04T21:46:55.130Z,7.90
2018-09-04T21:49:24.613Z,7.83
2018-09-04T21:51:54.055Z,8.90
2018-09-04T21:54:23.757Z,8.60
2018-09-04T21:56:54.617Z,8.53
2018-09-04T21:59:24.386Z,9.07
2018-09-04T22:01:53.800Z,8.30
2018-09-04T22:04:23.378Z,8.87
2018-09-04T22:06:52.787Z,8.70
2018-09-04T22:09:22.168Z,7.83
2018-09-04T22:11:51.534Z,9.17
2018-09-04T22:14:21.029Z,9.40
2018-09-04T22:16:50.398Z,8.77
2018-09-04T22:19:19.831Z,8.83
2018-09-04T22:21:49.584Z,8.43
2018-09-04T22:24:19.048Z,9.33
2018-09-04T22:26:48.451Z,9.47
2018-09-04T22:29:18.004Z,8.80
2018-09-04T22:31:47.431Z,8.87
2018-09-04T22:34:18.964Z,9.90
2018-09-04T22:36:49.065Z,8.73
2018-09-04T22:39:18.598Z,9.03
2018-09-04T22:41:47.983Z,8.83
2018-09-04T22:44:17.467Z,9.50
2018-09-04T22:46:47.158Z,9.80
2018-09-04T22:49:16.500Z,11.00
2018-09-04T22:51:45.807Z,10.27
2018-09-04T22:54:15.368Z,10.50
2018-09-04T22:56:44.784Z,9.77
2018-09-04T22:59:14.995Z,9.73
2018-09-04T23:01:44.400Z,10.07
2018-09-04T23:04:13.869Z,9.37
2018-09-04T23:06:43.719Z,10.10
2018-09-04T23:09:13.002Z,10.63
2018-09-04T23:11:42.302Z,9.60
2018-09-04T23:14:11.790Z,10.70
2018-09-04T23:16:41.111Z,10.30
2018-09-04T23:19:10.475Z,10.17
2018-09-04T23:21:40.162Z,11.40
2018-09-04T23:24:09.615Z,10.43
2018-09-04T23:26:39.057Z,10.70
2018-09-04T23:29:08.603Z,9.23
2018-09-04T23:31:38.211Z,10.83
2018-09-04T23:34:07.712Z,10.10
2018-09-04T23:36:37.941Z,10.90
2018-09-04T23:39:07.933Z,10.10
2018-09-04T23:41:37.601Z,11.00
2018-09-04T23:44:07.058Z,10.53
2018-09-04T23:46:36.359Z,11.37
2018-09-04T23:49:06.315Z,10.73
2018-09-04T23:51:36.273Z,11.00
2018-09-04T23:54:05.802Z,10.63
2018-09-04T23:56:35.397Z,11.13
2018-09-04T23:59:05.932Z,10.83
